createdAt,value
2022-10-07T00:00:20.114Z,56.84
2022-10-07T00:01:22.568Z,56.85
2022-10-07T00:02:24.975Z,56.87
2022-10-07T00:03:27.490Z,56.88
2022-10-07T00:04:29.638Z,56.93
2022-10-07T00:05:32.327Z,56.93
2022-10-07T00:06:36.421Z,56.96
2022-10-07T00:07:38.608Z,56.94
2022-10-07T00:08:42.958Z,56.94
2022-10-07T00:09:45.233Z,57.04
2022-10-07T00:10:47.543Z,57.04
2022-10-07T00:11:49.691Z,56.90
2022-10-07T00:12:51.857Z,56.87
2022-10-07T00:13:56.440Z,56.85
2022-10-07T00:14:58.724Z,56.86
2022-10-07T00:16:05.107Z,56.85
2022-10-07T00:17:07.307Z,56.86
2022-10-07T00:18:10.105Z,56.85
2022-10-07T00:19:12.942Z,56.81
2022-10-07T00:20:15.769Z,56.79
2022-10-07T00:21:18.880Z,56.79
2022-10-07T00:22:21.195Z,56.79
2022-10-07T00:23:23.474Z,56.76
2022-10-07T00:24:26.221Z,56.77
2022-10-07T00:25:28.401Z,56.70
2022-10-07T00:26:31.645Z,56.74
2022-10-07T00:27:33.799Z,56.70
2022-10-07T00:28:36.356Z,56.69
2022-10-07T00:29:39.408Z,56.67
2022-10-07T00:30:43.660Z,56.59
2022-10-07T00:31:47.422Z,56.60
2022-10-07T00:32:49.753Z,56.58
2022-10-07T00:33:53.199Z,56.50
2022-10-07T00:34:55.841Z,56.56
2022-10-07T00:35:58.070Z,56.57
2022-10-07T00:37:00.547Z,56.52
2022-10-07T00:38:02.674Z,56.50
2022-10-07T00:39:07.698Z,56.47
2022-10-07T00:40:11.812Z,56.44
2022-10-07T00:41:17.761Z,56.43
2022-10-07T00:42:20.456Z,56.38
2022-10-07T00:43:28.477Z,56.42
2022-10-07T00:44:34.638Z,56.39
2022-10-07T00:45:37.955Z,56.43
2022-10-07T00:46:40.292Z,56.45
2022-10-07T00:47:47.767Z,56.49
2022-10-07T00:48:50.193Z,56.53
2022-10-07T00:50:09.696Z,56.58
2022-10-07T00:51:11.869Z,56.61
2022-10-07T00:52:14.521Z,56.65
2022-10-07T00:53:17.129Z,56.65
2022-10-07T00:54:19.263Z,56.71
2022-10-07T00:55:24.282Z,56.74
2022-10-07T00:56:26.562Z,56.75
2022-10-07T00:57:28.972Z,56.82
2022-10-07T00:58:33.155Z,56.82
2022-10-07T00:59:36.721Z,56.93
2022-10-07T01:00:39.167Z,56.98
2022-10-07T01:01:42.771Z,57.04
2022-10-07T01:02:45.186Z,57.07
2022-10-07T01:03:48.929Z,57.12
2022-10-07T01:04:52.033Z,57.20
2022-10-07T01:05:54.301Z,57.26
2022-10-07T01:06:56.630Z,57.24
2022-10-07T01:07:59.410Z,57.33
2022-10-07T01:09:02.832Z,57.38
2022-10-07T01:10:06.116Z,57.38
2022-10-07T01:11:37.933Z,57.45
2022-10-07T01:14:07.676Z,57.46
2022-10-07T01:17:02.388Z,57.60
2022-10-07T01:18:08.606Z,57.61
2022-10-07T01:19:21.410Z,57.68
2022-10-07T01:20:54.286Z,57.69
2022-10-07T01:22:12.534Z,57.71
2022-10-07T01:23:39.369Z,57.73
2022-10-07T01:24:48.173Z,57.96
2022-10-07T01:26:06.643Z,58.01
2022-10-07T01:27:11.586Z,58.00
2022-10-07T01:28:16.333Z,58.08
2022-10-07T01:29:25.653Z,58.16
2022-10-07T01:30:28.530Z,58.18
2022-10-07T01:33:04.985Z,58.17
2022-10-07T01:34:08.330Z,58.22
2022-10-07T01:35:13.010Z,58.22
2022-10-07T01:36:16.644Z,58.18
2022-10-07T01:37:19.680Z,58.18
2022-10-07T01:38:24.252Z,58.17
2022-10-07T01:39:30.725Z,58.22
2022-10-07T01:41:57.618Z,58.20
2022-10-07T01:43:00.917Z,58.16
2022-10-07T01:44:04.465Z,58.14
2022-10-07T01:45:08.496Z,58.18
2022-10-07T01:46:15.211Z,58.16
2022-10-07T01:47:18.864Z,58.10
2022-10-07T01:48:21.732Z,58.14
2022-10-07T01:49:24.784Z,58.14
2022-10-07T01:50:27.409Z,58.11
2022-10-07T01:51:32.703Z,58.18
2022-10-07T01:52:55.487Z,58.19
2022-10-07T01:54:05.460Z,58.20
2022-10-07T01:56:44.313Z,58.08
2022-10-07T01:58:11.596Z,58.06
2022-10-07T01:59:51.885Z,58.05
2022-10-07T02:02:50.960Z,58.19
2022-10-07T02:05:44.911Z,58.32
2022-10-07T02:07:21.801Z,58.35
2022-10-07T02:08:33.068Z,58.33
2022-10-07T02:09:38.959Z,58.31
2022-10-07T02:11:00.540Z,58.33
2022-10-07T02:13:29.742Z,58.37
2022-10-07T02:15:48.884Z,58.36
2022-10-07T02:18:07.347Z,58.37
2022-10-07T02:19:14.175Z,58.39
2022-10-07T02:20:18.362Z,58.33
2022-10-07T02:21:24.285Z,58.29
2022-10-07T02:22:27.857Z,58.26
2022-10-07T02:23:30.644Z,58.25
2022-10-07T02:24:33.995Z,58.18
2022-10-07T02:25:40.092Z,58.24
2022-10-07T02:26:42.809Z,58.24
2022-10-07T02:27:45.681Z,58.25
2022-10-07T02:28:50.969Z,58.28
2022-10-07T02:29:56.548Z,58.29
2022-10-07T02:30:59.829Z,58.15
2022-10-07T02:32:03.333Z,58.16
2022-10-07T02:33:06.838Z,58.13
2022-10-07T02:34:16.251Z,58.11
2022-10-07T02:35:26.069Z,58.09
2022-10-07T02:36:33.627Z,58.01
2022-10-07T02:37:37.074Z,57.98
2022-10-07T02:38:42.035Z,57.92
2022-10-07T02:39:46.648Z,57.90
2022-10-07T02:40:56.560Z,57.93
2022-10-07T02:42:03.169Z,57.86
2022-10-07T02:44:49.344Z,57.91
2022-10-07T02:47:25.164Z,57.88
2022-10-07T02:48:33.766Z,57.88
2022-10-07T02:49:37.063Z,57.92
2022-10-07T02:50:39.473Z,57.87
2022-10-07T02:51:47.220Z,57.84
2022-10-07T02:52:50.769Z,57.88
2022-10-07T02:53:53.093Z,57.85
2022-10-07T02:54:57.523Z,57.88
2022-10-07T02:56:00.318Z,57.88
2022-10-07T02:57:02.649Z,57.87
2022-10-07T02:58:06.302Z,57.84
2022-10-07T02:59:09.409Z,57.83
2022-10-07T03:00:13.269Z,57.83
2022-10-07T03:01:20.805Z,57.81
2022-10-07T03:02:26.755Z,57.81
2022-10-07T03:03:30.137Z,57.78
2022-10-07T03:04:34.137Z,57.79
2022-10-07T03:05:36.600Z,57.79
2022-10-07T03:06:39.373Z,57.87
2022-10-07T03:07:41.852Z,57.93
2022-10-07T03:08:44.326Z,57.95
2022-10-07T03:09:46.551Z,57.98
2022-10-07T03:10:48.743Z,58.07
2022-10-07T03:11:51.190Z,58.06
2022-10-07T03:12:53.268Z,58.02
2022-10-07T03:13:55.540Z,58.00
2022-10-07T03:14:57.647Z,57.94
2022-10-07T03:16:01.342Z,57.88
2022-10-07T03:17:04.677Z,57.45
2022-10-07T03:18:07.274Z,57.45
2022-10-07T03:19:10.284Z,57.76
2022-10-07T03:20:17.987Z,57.78
2022-10-07T03:21:21.464Z,57.72
2022-10-07T03:22:24.385Z,57.73
2022-10-07T03:23:28.512Z,57.68
2022-10-07T03:24:30.796Z,57.65
2022-10-07T03:25:35.041Z,57.62
2022-10-07T03:26:37.885Z,57.62
2022-10-07T03:27:40.593Z,57.58
2022-10-07T03:28:44.130Z,57.63
2022-10-07T03:29:46.935Z,57.61
2022-10-07T03:30:49.775Z,57.59
2022-10-07T03:31:52.195Z,57.59
2022-10-07T03:32:55.732Z,57.56
2022-10-07T03:33:58.389Z,57.59
2022-10-07T03:35:01.908Z,57.56
2022-10-07T03:36:05.973Z,57.55
2022-10-07T03:37:10.159Z,57.57
2022-10-07T03:38:13.011Z,57.49
2022-10-07T03:39:15.261Z,57.48
2022-10-07T03:40:17.569Z,57.49
2022-10-07T03:41:20.197Z,57.43
2022-10-07T03:42:24.639Z,57.30
2022-10-07T03:43:27.656Z,57.30
2022-10-07T03:44:29.948Z,57.38
2022-10-07T03:45:32.373Z,57.39
2022-10-07T03:46:35.337Z,57.36
2022-10-07T03:47:37.675Z,57.34
2022-10-07T03:48:40.818Z,57.38
2022-10-07T03:49:44.262Z,57.38
2022-10-07T03:50:49.087Z,57.37
2022-10-07T03:51:52.139Z,57.35
2022-10-07T03:52:54.476Z,57.33
2022-10-07T03:53:57.749Z,57.34
2022-10-07T03:55:02.312Z,57.29
2022-10-07T03:56:05.051Z,57.26
2022-10-07T03:57:08.472Z,57.24
2022-10-07T03:58:10.963Z,57.25
2022-10-07T03:59:13.306Z,57.22
2022-10-07T04:00:20.534Z,57.22
2022-10-07T04:01:24.662Z,57.20
2022-10-07T04:02:30.135Z,57.25
2022-10-07T04:03:32.521Z,57.25
2022-10-07T04:04:34.939Z,57.27
2022-10-07T04:05:37.190Z,57.25
2022-10-07T04:06:41.387Z,57.31
2022-10-07T04:07:46.927Z,57.30
2022-10-07T04:08:53.393Z,57.30
2022-10-07T04:09:56.889Z,57.30
2022-10-07T04:11:02.595Z,57.25
2022-10-07T04:12:05.155Z,57.22
2022-10-07T04:13:07.572Z,57.21
2022-10-07T04:14:10.674Z,57.19
2022-10-07T04:15:14.722Z,57.19
2022-10-07T04:16:18.647Z,57.07
2022-10-07T04:17:21.056Z,57.00
2022-10-07T04:18:23.435Z,56.96
2022-10-07T04:19:26.784Z,56.94
2022-10-07T04:20:29.587Z,56.93
2022-10-07T04:21:32.141Z,56.91
2022-10-07T04:22:34.721Z,56.93
2022-10-07T04:23:38.130Z,56.95
2022-10-07T04:24:40.647Z,56.99
2022-10-07T04:25:44.328Z,57.00
2022-10-07T04:26:49.945Z,57.02
2022-10-07T04:29:05.515Z,56.99
2022-10-07T04:30:11.261Z,57.01
2022-10-07T04:31:13.596Z,57.03
2022-10-07T04:32:18.690Z,57.03
2022-10-07T04:33:22.635Z,57.00
2022-10-07T04:34:25.235Z,57.07
2022-10-07T04:35:27.326Z,57.01
2022-10-07T04:36:30.588Z,56.96
2022-10-07T04:37:35.766Z,56.99
2022-10-07T04:38:37.982Z,56.90
2022-10-07T04:39:59.733Z,56.94
2022-10-07T04:40:46.585Z,56.94
2022-10-07T04:41:49.608Z,56.92
2022-10-07T04:42:54.757Z,56.88
2022-10-07T04:43:58.184Z,57.00
2022-10-07T04:45:03.474Z,57.01
2022-10-07T04:46:08.861Z,56.93
2022-10-07T04:47:13.678Z,56.89
2022-10-07T04:48:17.247Z,56.87
2022-10-07T04:49:19.453Z,56.85
2022-10-07T04:50:23.529Z,56.83
2022-10-07T04:51:26.917Z,56.79
2022-10-07T04:52:31.091Z,56.67
2022-10-07T04:53:35.343Z,56.55
2022-10-07T04:54:39.254Z,56.48
2022-10-07T04:56:56.635Z,56.14
2022-10-07T04:58:01.061Z,56.03
2022-10-07T04:59:04.066Z,55.96
2022-10-07T05:00:07.575Z,55.97
2022-10-07T05:01:10.113Z,56.00
2022-10-07T05:02:14.639Z,56.00
2022-10-07T05:03:18.464Z,56.02
2022-10-07T05:04:20.979Z,55.98
2022-10-07T05:05:24.144Z,55.98
2022-10-07T05:06:28.518Z,56.00
2022-10-07T05:07:31.387Z,56.04
2022-10-07T05:08:34.978Z,56.06
2022-10-07T05:09:37.993Z,56.10
2022-10-07T05:10:42.007Z,56.14
2022-10-07T05:11:44.138Z,56.25
2022-10-07T05:12:55.777Z,56.39
2022-10-07T05:13:56.080Z,56.45
2022-10-07T05:14:59.897Z,56.51
2022-10-07T05:16:02.423Z,56.57
2022-10-07T05:17:04.927Z,56.55
2022-10-07T05:18:09.445Z,56.59
2022-10-07T05:19:11.824Z,56.63
2022-10-07T05:20:15.447Z,56.61
2022-10-07T05:21:18.532Z,56.59
2022-10-07T05:22:21.575Z,56.57
2022-10-07T05:23:28.316Z,56.55
2022-10-07T05:24:30.482Z,56.57
2022-10-07T05:25:32.709Z,56.57
2022-10-07T05:26:35.286Z,56.57
2022-10-07T05:27:38.170Z,56.57
2022-10-07T05:28:42.033Z,56.63
2022-10-07T05:29:45.186Z,56.77
2022-10-07T05:30:47.991Z,56.85
2022-10-07T05:31:50.321Z,56.94
2022-10-07T05:32:54.472Z,56.99
2022-10-07T05:33:57.109Z,57.03
2022-10-07T05:35:00.167Z,57.02
2022-10-07T05:36:05.154Z,56.99
2022-10-07T05:37:08.479Z,57.02
2022-10-07T05:38:11.665Z,56.96
2022-10-07T05:39:14.436Z,56.96
2022-10-07T05:40:20.012Z,56.95
2022-10-07T05:41:22.878Z,56.93
2022-10-07T05:42:25.257Z,56.88
2022-10-07T05:43:31.196Z,56.90
2022-10-07T05:44:33.785Z,56.89
2022-10-07T05:45:36.528Z,56.88
2022-10-07T05:46:38.922Z,56.85
2022-10-07T05:47:42.418Z,56.80
2022-10-07T05:48:45.861Z,56.80
2022-10-07T05:49:48.222Z,56.77
2022-10-07T05:51:12.524Z,56.73
2022-10-07T05:52:15.735Z,56.76
2022-10-07T05:53:19.135Z,56.78
2022-10-07T05:54:21.454Z,56.80
2022-10-07T05:55:23.564Z,56.79
2022-10-07T05:56:26.253Z,56.73
2022-10-07T05:57:29.408Z,56.74
2022-10-07T05:58:32.780Z,56.74
2022-10-07T05:59:35.587Z,56.73
2022-10-07T06:00:39.614Z,56.69
2022-10-07T06:01:42.461Z,56.66
2022-10-07T06:02:47.771Z,56.56
2022-10-07T06:03:52.155Z,56.56
2022-10-07T06:04:56.641Z,56.50
2022-10-07T06:05:58.990Z,56.44
2022-10-07T06:07:02.091Z,56.48
2022-10-07T06:08:04.564Z,56.43
2022-10-07T06:09:06.913Z,56.44
2022-10-07T06:10:11.149Z,56.44
2022-10-07T06:11:15.478Z,56.42
2022-10-07T06:12:18.248Z,56.43
2022-10-07T06:13:21.986Z,56.40
2022-10-07T06:14:25.380Z,56.37
2022-10-07T06:15:29.624Z,56.36
2022-10-07T06:16:34.304Z,56.38
2022-10-07T06:18:55.540Z,56.43
2022-10-07T06:20:00.367Z,56.44
2022-10-07T06:21:03.035Z,56.42
2022-10-07T06:22:06.990Z,56.46
2022-10-07T06:23:10.271Z,56.20
2022-10-07T06:24:13.250Z,56.20
2022-10-07T06:25:17.349Z,56.40
2022-10-07T06:26:22.198Z,56.42
2022-10-07T06:27:24.742Z,56.42
2022-10-07T06:28:35.560Z,56.39
2022-10-07T06:29:39.871Z,56.38
2022-10-07T06:30:43.665Z,56.39
2022-10-07T06:31:47.914Z,56.38
2022-10-07T06:32:50.951Z,56.41
2022-10-07T06:33:53.392Z,56.41
2022-10-07T06:34:56.390Z,56.41
2022-10-07T06:37:16.724Z,56.43
2022-10-07T06:38:20.068Z,56.35
2022-10-07T06:39:22.960Z,56.37
2022-10-07T06:40:26.540Z,56.39
2022-10-07T06:41:30.132Z,56.41
2022-10-07T06:42:48.358Z,56.37
2022-10-07T06:43:58.391Z,56.33
2022-10-07T06:45:02.559Z,56.17
2022-10-07T06:46:05.710Z,56.19
2022-10-07T06:47:11.644Z,56.14
2022-10-07T06:48:13.016Z,56.13
2022-10-07T06:49:16.293Z,56.06
2022-10-07T06:50:19.649Z,56.02
2022-10-07T06:51:23.335Z,56.02
2022-10-07T06:52:25.807Z,56.23
2022-10-07T06:53:28.462Z,56.23
2022-10-07T06:54:30.693Z,55.88
2022-10-07T06:55:33.481Z,55.80
2022-10-07T06:56:35.967Z,55.79
2022-10-07T06:57:45.621Z,55.73
2022-10-07T06:58:43.466Z,55.67
2022-10-07T06:59:46.785Z,55.64
2022-10-07T07:00:51.103Z,55.59
2022-10-07T07:01:55.575Z,55.56
2022-10-07T07:02:58.984Z,55.53
2022-10-07T07:04:01.756Z,55.47
2022-10-07T07:05:06.050Z,55.47
2022-10-07T07:06:09.744Z,55.41
2022-10-07T07:07:12.246Z,55.40
2022-10-07T07:08:15.596Z,55.38
2022-10-07T07:09:18.419Z,55.35
2022-10-07T07:10:21.311Z,55.29
2022-10-07T07:11:26.358Z,55.24
2022-10-07T07:12:28.836Z,55.24
2022-10-07T07:13:32.685Z,55.22
2022-10-07T07:14:35.002Z,55.16
2022-10-07T07:15:42.874Z,55.16
2022-10-07T07:16:46.937Z,55.13
2022-10-07T07:17:49.499Z,55.22
2022-10-07T07:18:53.120Z,54.64
2022-10-07T07:19:56.091Z,53.67
2022-10-07T07:21:02.734Z,54.45
2022-10-07T07:22:05.656Z,54.38
2022-10-07T07:23:08.386Z,54.20
2022-10-07T07:24:11.597Z,53.65
2022-10-07T07:25:14.124Z,53.99
2022-10-07T07:26:18.190Z,54.04
2022-10-07T07:27:21.417Z,54.00
2022-10-07T07:28:23.809Z,53.88
2022-10-07T07:29:27.463Z,53.88
2022-10-07T07:30:32.625Z,53.85
2022-10-07T07:31:35.495Z,53.78
2022-10-07T07:32:37.825Z,53.70
2022-10-07T07:33:39.892Z,53.69
2022-10-07T07:34:42.145Z,53.57
2022-10-07T07:35:46.115Z,53.61
2022-10-07T07:36:50.287Z,53.64
2022-10-07T07:37:53.221Z,53.52
2022-10-07T07:40:10.237Z,53.20
2022-10-07T07:41:12.442Z,53.16
2022-10-07T07:42:14.900Z,53.11
2022-10-07T07:43:18.353Z,53.22
2022-10-07T07:44:20.655Z,54.51
2022-10-07T07:45:24.244Z,55.21
2022-10-07T07:46:29.781Z,55.18
2022-10-07T07:47:33.290Z,55.74
2022-10-07T07:48:36.094Z,56.39
2022-10-07T07:49:39.093Z,57.04
2022-10-07T07:50:42.554Z,57.49
2022-10-07T07:51:45.333Z,57.97
2022-10-07T07:52:54.037Z,58.03
2022-10-07T07:53:55.055Z,58.05
2022-10-07T07:54:57.360Z,58.28
2022-10-07T07:55:59.879Z,57.81
2022-10-07T07:57:02.675Z,57.81
2022-10-07T07:58:11.083Z,57.78
2022-10-07T07:59:12.433Z,58.01
2022-10-07T08:00:15.666Z,58.11
2022-10-07T08:02:35.430Z,58.13
2022-10-07T08:03:38.341Z,58.10
2022-10-07T08:04:41.005Z,58.01
2022-10-07T08:05:44.001Z,57.97
2022-10-07T08:06:47.002Z,57.82
2022-10-07T08:07:49.273Z,57.68
2022-10-07T08:08:52.753Z,57.51
2022-10-07T08:09:56.007Z,57.42
2022-10-07T08:11:12.944Z,57.28
2022-10-07T08:12:16.526Z,57.14
2022-10-07T08:13:19.916Z,56.91
2022-10-07T08:14:23.084Z,56.83
2022-10-07T08:15:26.589Z,56.72
2022-10-07T08:16:30.086Z,56.64
2022-10-07T08:17:33.462Z,56.54
2022-10-07T08:18:35.703Z,56.47
2022-10-07T08:19:39.005Z,56.45
2022-10-07T08:20:41.487Z,56.35
2022-10-07T08:21:43.732Z,56.32
2022-10-07T08:22:47.832Z,56.24
2022-10-07T08:23:55.007Z,56.17
2022-10-07T08:24:59.322Z,56.08
2022-10-07T08:26:02.747Z,56.12
2022-10-07T08:27:05.545Z,56.02
2022-10-07T08:28:07.807Z,55.99
2022-10-07T08:29:11.004Z,55.93
2022-10-07T08:30:14.279Z,55.80
2022-10-07T08:31:18.647Z,55.86
2022-10-07T08:32:20.893Z,55.80
2022-10-07T08:33:23.370Z,55.81
2022-10-07T08:34:26.496Z,55.77
2022-10-07T08:35:29.151Z,55.73
2022-10-07T08:36:31.847Z,55.74
2022-10-07T08:37:35.732Z,55.68
2022-10-07T08:38:39.440Z,55.63
2022-10-07T08:39:42.778Z,55.03
2022-10-07T08:42:05.016Z,52.94
2022-10-07T08:43:09.163Z,53.55
2022-10-07T08:44:21.150Z,53.19
2022-10-07T08:45:30.402Z,52.64
2022-10-07T08:46:33.402Z,53.34
2022-10-07T08:47:41.595Z,53.51
2022-10-07T08:50:19.184Z,53.89
2022-10-07T08:51:21.803Z,53.10
2022-10-07T08:52:31.021Z,53.55
2022-10-07T08:53:34.801Z,53.60
2022-10-07T08:54:37.433Z,53.63
2022-10-07T08:55:42.078Z,53.05
2022-10-07T08:56:44.784Z,53.50
2022-10-07T08:57:50.734Z,54.33
2022-10-07T08:59:09.780Z,54.33
2022-10-07T09:00:13.211Z,54.86
2022-10-07T09:01:49.149Z,54.25
2022-10-07T09:03:26.050Z,51.64
2022-10-07T09:04:34.082Z,53.35
2022-10-07T09:05:38.471Z,53.05
2022-10-07T09:08:04.304Z,53.16
2022-10-07T09:09:26.789Z,51.45
2022-10-07T09:10:41.817Z,52.67
2022-10-07T09:11:45.062Z,53.48
2022-10-07T09:12:56.242Z,52.56
2022-10-07T09:15:51.498Z,51.68
2022-10-07T09:16:55.920Z,50.74
2022-10-07T09:18:02.024Z,51.60
2022-10-07T09:19:04.330Z,50.72
2022-10-07T09:20:13.609Z,50.79
2022-10-07T09:21:19.133Z,51.33
2022-10-07T09:23:37.681Z,51.17
2022-10-07T09:24:40.106Z,51.23
2022-10-07T09:25:43.127Z,49.49
2022-10-07T09:26:45.879Z,48.12
2022-10-07T09:27:48.259Z,48.56
2022-10-07T09:28:51.880Z,49.75
2022-10-07T09:29:54.440Z,48.28
2022-10-07T09:31:00.107Z,48.25
2022-10-07T09:32:02.721Z,48.00
2022-10-07T09:33:07.576Z,48.96
2022-10-07T09:35:31.310Z,48.83
2022-10-07T09:36:35.372Z,48.32
2022-10-07T09:37:37.581Z,49.00
2022-10-07T09:38:45.079Z,48.19
2022-10-07T09:39:49.837Z,49.54
2022-10-07T09:40:52.126Z,50.40
2022-10-07T09:41:54.261Z,51.05
2022-10-07T09:42:57.670Z,49.74
2022-10-07T09:44:18.979Z,48.72
2022-10-07T09:45:24.860Z,50.66
2022-10-07T09:48:02.346Z,49.81
2022-10-07T09:49:04.532Z,50.71
2022-10-07T09:51:30.619Z,47.02
2022-10-07T09:52:32.930Z,46.79
2022-10-07T09:53:35.081Z,46.83
2022-10-07T09:54:37.773Z,45.55
2022-10-07T09:55:40.580Z,46.14
2022-10-07T09:56:45.365Z,45.68
2022-10-07T09:57:54.884Z,44.58
2022-10-07T09:59:17.486Z,43.48
2022-10-07T10:01:36.421Z,43.60
2022-10-07T10:03:57.600Z,44.41
2022-10-07T10:05:01.387Z,45.63
2022-10-07T10:06:07.771Z,46.82
2022-10-07T10:07:20.611Z,46.72
2022-10-07T10:08:32.371Z,46.14
2022-10-07T10:09:35.562Z,45.36
2022-10-07T10:10:37.965Z,45.20
2022-10-07T10:11:40.121Z,45.42
2022-10-07T10:12:47.511Z,46.02
2022-10-07T10:13:50.397Z,47.18
2022-10-07T10:16:26.736Z,49.05
2022-10-07T10:17:38.581Z,48.76
2022-10-07T10:18:41.191Z,48.43
2022-10-07T10:19:43.619Z,49.98
2022-10-07T10:20:46.236Z,47.67
2022-10-07T10:21:56.864Z,49.96
2022-10-07T10:23:00.269Z,48.78
2022-10-07T10:24:05.664Z,47.75
2022-10-07T10:25:10.014Z,48.96
2022-10-07T10:26:16.413Z,49.67
2022-10-07T10:27:24.210Z,48.99
2022-10-07T10:28:47.553Z,49.72
2022-10-07T10:29:56.467Z,49.87
2022-10-07T10:31:01.766Z,47.64
2022-10-07T10:32:16.623Z,49.01
2022-10-07T10:33:25.179Z,48.19
2022-10-07T10:34:51.390Z,48.46
2022-10-07T10:35:57.982Z,47.76
2022-10-07T10:38:34.164Z,48.18
2022-10-07T10:39:40.220Z,48.83
2022-10-07T10:41:08.598Z,48.68
2022-10-07T10:42:14.523Z,48.03
2022-10-07T10:47:58.674Z,49.09
2022-10-07T10:50:57.819Z,49.88
2022-10-07T10:52:24.846Z,50.09
2022-10-07T10:53:34.792Z,50.45
2022-10-07T10:54:49.751Z,50.75
2022-10-07T10:56:11.560Z,50.94
2022-10-07T10:58:59.692Z,51.46
2022-10-07T11:00:11.688Z,51.76
2022-10-07T11:02:57.600Z,52.12
2022-10-07T11:04:25.685Z,52.29
2022-10-07T11:05:36.143Z,52.39
2022-10-07T11:06:39.590Z,52.43
2022-10-07T11:09:00.436Z,52.73
2022-10-07T11:10:21.601Z,52.80
2022-10-07T11:11:24.900Z,52.83
2022-10-07T11:12:41.310Z,52.89
2022-10-07T11:13:47.263Z,52.95
2022-10-07T11:16:08.109Z,53.17
2022-10-07T11:17:10.527Z,53.23
2022-10-07T11:18:26.201Z,53.31
2022-10-07T11:19:35.990Z,53.35
2022-10-07T11:20:44.523Z,53.39
2022-10-07T11:21:52.769Z,53.39
2022-10-07T11:23:06.337Z,53.15
2022-10-07T11:24:28.969Z,53.24
2022-10-07T11:25:36.110Z,53.29
2022-10-07T11:26:43.704Z,53.47
2022-10-07T11:27:45.875Z,53.53
2022-10-07T11:28:49.694Z,53.66
2022-10-07T11:30:11.161Z,53.89
2022-10-07T11:31:37.425Z,53.83
2022-10-07T11:32:49.791Z,53.89
2022-10-07T11:34:17.309Z,53.74
2022-10-07T11:35:31.733Z,53.55
2022-10-07T11:36:50.068Z,53.49
2022-10-07T11:38:12.285Z,53.34
2022-10-07T11:39:14.858Z,53.29
2022-10-07T11:40:18.519Z,53.20
2022-10-07T11:41:28.080Z,53.17
2022-10-07T11:42:30.460Z,53.14
2022-10-07T11:43:36.223Z,53.06
2022-10-07T11:44:49.036Z,53.02
2022-10-07T11:45:55.671Z,52.96
2022-10-07T11:46:58.882Z,52.88
2022-10-07T11:48:06.836Z,52.82
2022-10-07T11:49:14.417Z,52.75
2022-10-07T11:51:39.701Z,52.62
2022-10-07T11:52:44.775Z,52.59
2022-10-07T11:53:47.310Z,52.55
2022-10-07T11:56:24.002Z,52.46
2022-10-07T11:57:28.972Z,52.40
2022-10-07T11:58:34.112Z,52.31
2022-10-07T11:59:44.788Z,52.20
2022-10-07T12:00:48.309Z,52.13
2022-10-07T12:01:50.601Z,52.03
2022-10-07T12:02:54.730Z,51.96
2022-10-07T12:04:22.040Z,51.88
2022-10-07T12:05:38.370Z,51.84
2022-10-07T12:07:18.719Z,51.81
2022-10-07T12:08:35.035Z,51.75
2022-10-07T12:10:01.871Z,51.69
2022-10-07T12:11:17.068Z,51.69
2022-10-07T12:12:23.804Z,51.74
2022-10-07T12:13:38.846Z,51.77
2022-10-07T12:14:42.325Z,51.85
2022-10-07T12:15:44.487Z,52.04
2022-10-07T12:16:52.419Z,52.92
2022-10-07T12:18:05.016Z,53.46
2022-10-07T12:19:12.055Z,54.44
2022-10-07T12:20:36.594Z,55.45
2022-10-07T12:22:02.081Z,55.52
2022-10-07T12:24:34.056Z,56.39
2022-10-07T12:25:36.430Z,57.29
2022-10-07T12:26:40.852Z,58.06
2022-10-07T12:27:46.587Z,58.33
2022-10-07T12:28:48.794Z,58.61
2022-10-07T12:29:58.051Z,59.01
2022-10-07T12:32:46.028Z,59.00
2022-10-07T12:34:07.397Z,59.03
2022-10-07T12:35:33.157Z,59.21
2022-10-07T12:36:39.441Z,59.38
2022-10-07T12:38:59.559Z,59.96
2022-10-07T12:40:15.273Z,59.77
2022-10-07T12:41:25.233Z,59.75
2022-10-07T12:42:27.581Z,59.71
2022-10-07T12:43:39.516Z,59.67
2022-10-07T12:44:46.034Z,59.69
2022-10-07T12:45:48.338Z,59.64
2022-10-07T12:46:57.722Z,59.53
2022-10-07T12:47:59.886Z,59.47
2022-10-07T12:49:23.861Z,59.68
2022-10-07T12:50:26.276Z,59.66
2022-10-07T12:51:34.573Z,59.42
2022-10-07T12:52:51.289Z,59.27
2022-10-07T12:53:54.685Z,59.27
2022-10-07T12:55:17.565Z,59.20
2022-10-07T12:56:21.442Z,59.11
2022-10-07T12:57:33.400Z,58.93
2022-10-07T12:59:03.222Z,58.95
2022-10-07T13:00:14.425Z,58.82
2022-10-07T13:01:44.460Z,58.56
2022-10-07T13:03:22.914Z,58.46
2022-10-07T13:04:59.860Z,58.24
2022-10-07T13:06:18.607Z,58.02
2022-10-07T13:07:33.957Z,57.79
2022-10-07T13:08:57.003Z,57.69
2022-10-07T13:10:27.267Z,57.98
2022-10-07T13:12:00.309Z,58.06
2022-10-07T13:14:32.545Z,58.37
2022-10-07T13:15:53.554Z,58.61
2022-10-07T13:17:00.470Z,58.68
2022-10-07T13:18:28.882Z,58.62
2022-10-07T13:19:49.883Z,58.61
2022-10-07T13:20:58.983Z,58.35
2022-10-07T13:22:07.819Z,57.96
2022-10-07T13:23:24.576Z,57.78
2022-10-07T13:24:27.095Z,57.63
2022-10-07T13:25:29.373Z,57.04
2022-10-07T13:26:32.884Z,57.40
2022-10-07T13:27:34.982Z,57.17
2022-10-07T13:28:46.655Z,57.18
2022-10-07T13:29:49.817Z,56.85
2022-10-07T13:30:52.198Z,56.56
2022-10-07T13:32:15.348Z,56.63
2022-10-07T13:33:29.771Z,56.51
2022-10-07T13:34:32.378Z,56.29
2022-10-07T13:35:39.360Z,55.90
2022-10-07T13:36:43.314Z,55.90
2022-10-07T13:37:46.034Z,55.72
2022-10-07T13:38:53.254Z,55.51
2022-10-07T13:39:56.671Z,55.33
2022-10-07T13:41:05.058Z,55.12
2022-10-07T13:42:08.539Z,54.46
2022-10-07T13:43:12.995Z,54.64
2022-10-07T13:44:17.175Z,54.64
2022-10-07T13:45:19.839Z,54.22
2022-10-07T13:46:23.817Z,54.13
2022-10-07T13:47:26.158Z,53.84
2022-10-07T13:48:29.871Z,53.94
2022-10-07T13:50:49.558Z,54.30
2022-10-07T13:51:56.154Z,54.42
2022-10-07T13:52:57.292Z,54.45
2022-10-07T13:54:01.136Z,54.28
2022-10-07T13:55:25.220Z,54.51
2022-10-07T13:56:31.114Z,54.12
2022-10-07T13:57:34.181Z,54.41
2022-10-07T13:58:36.513Z,54.37
2022-10-07T13:59:38.954Z,54.48
2022-10-07T14:00:43.782Z,54.65
2022-10-07T14:01:51.128Z,54.58
2022-10-07T14:02:53.655Z,54.47
2022-10-07T14:04:19.553Z,54.85
2022-10-07T14:05:28.072Z,55.13
2022-10-07T14:06:54.041Z,55.37
2022-10-07T14:07:58.299Z,55.48
2022-10-07T14:09:00.472Z,55.73
2022-10-07T14:10:05.748Z,55.53
2022-10-07T14:11:11.596Z,55.81
2022-10-07T14:12:18.207Z,55.68
2022-10-07T14:13:21.078Z,55.62
2022-10-07T14:14:25.948Z,55.63
2022-10-07T14:15:29.691Z,55.55
2022-10-07T14:16:32.140Z,55.48
2022-10-07T14:19:10.815Z,55.06
2022-10-07T14:20:32.641Z,54.88
2022-10-07T14:22:51.690Z,54.61
2022-10-07T14:23:53.846Z,54.46
2022-10-07T14:24:58.310Z,54.42
2022-10-07T14:26:08.576Z,54.23
2022-10-07T14:27:47.675Z,54.09
2022-10-07T14:28:50.999Z,53.76
2022-10-07T14:29:53.363Z,53.57
2022-10-07T14:31:18.234Z,53.46
2022-10-07T14:32:20.650Z,53.37
2022-10-07T14:33:45.772Z,53.22
2022-10-07T14:34:47.962Z,53.10
2022-10-07T14:36:11.261Z,53.04
2022-10-07T14:37:20.268Z,52.96
2022-10-07T14:38:42.873Z,52.84
2022-10-07T14:39:47.552Z,52.63
2022-10-07T14:40:50.816Z,52.55
2022-10-07T14:41:53.117Z,52.59
2022-10-07T14:42:55.253Z,52.57
2022-10-07T14:43:57.365Z,52.48
2022-10-07T14:45:01.490Z,52.41
2022-10-07T14:47:34.346Z,52.46
2022-10-07T14:48:36.478Z,52.44
2022-10-07T14:49:40.159Z,52.47
2022-10-07T14:50:43.146Z,52.48
2022-10-07T14:51:46.218Z,52.54
2022-10-07T14:52:50.154Z,52.54
2022-10-07T14:53:54.421Z,52.62
2022-10-07T14:54:57.831Z,52.69
2022-10-07T14:55:59.999Z,52.72
2022-10-07T14:57:02.156Z,52.80
2022-10-07T14:58:04.298Z,52.81
2022-10-07T15:00:27.250Z,52.94
2022-10-07T15:01:32.093Z,52.94
2022-10-07T15:02:34.370Z,53.00
2022-10-07T15:03:37.769Z,53.02
2022-10-07T15:04:40.230Z,53.12
2022-10-07T15:05:42.655Z,53.10
2022-10-07T15:06:50.046Z,53.14
2022-10-07T15:07:51.107Z,53.24
2022-10-07T15:08:53.706Z,53.30
2022-10-07T15:09:55.997Z,53.24
2022-10-07T15:10:59.388Z,53.24
2022-10-07T15:12:01.658Z,53.61
2022-10-07T15:13:06.883Z,53.65
2022-10-07T15:14:10.886Z,53.77
2022-10-07T15:15:13.500Z,53.82
2022-10-07T15:16:19.218Z,53.88
2022-10-07T15:17:21.849Z,53.93
2022-10-07T15:18:24.094Z,53.99
2022-10-07T15:19:26.846Z,53.96
2022-10-07T15:20:29.916Z,54.08
2022-10-07T15:21:32.205Z,54.19
2022-10-07T15:22:34.909Z,54.21